EFVA

Vaasa Airport

Vaasa, Finland
TAF EFVA 181133Z 1812/1912 19012KT 9999 BKN017 TEMPO 1812/1815 20017G27KT BKN012 BECMG 1906/1908 7000 SHRA BKN010 SCT030CB
Issued Valid From Valid To
Jun-18 @ 11:33 UTC
(2 hours ago)
Jun-18 @ 12:00 UTC
(an hour ago)
Jun-19 @ 12:00 UTC
(in 23 hours)
Jun-18 @ 12:00 to Jun-19 @ 06:00
TAF EFVA 181133Z 1812/1912 19012KT 9999 BKN017
Wind Visibility Clouds
190° at 12 knots 10,000+ meters
  • Broken at 1,700' AGL
Temporary Jun-18 @ 12:00 to Jun-18 @ 15:00
TEMPO 1812/1815 20017G27KT BKN012
Wind Clouds
200° at 17 knots
 Gusting to 27 knots
  • Broken at 1,200' AGL
Becoming Jun-19 @ 06:00 to Jun-19 @ 12:00
BECMG 1906/1908 7000 SHRA BKN010 SCT030CB
Wind Visibility Clouds Conditions
190° at 12 knots 7,001 meters
  • Broken at 1,000' AGL
  • Scattered at 3,000' AGL
  • Rain
TAF EFVA 181133Z 1812/1912 19012KT 9999 BKN017 TEMPO 1812/1815 20017G27KT BKN012 BECMG 1906/1908 7000 SHRA BKN010 SCT030CB
Issued Jun-18 @ 11:33 UTC
(2 hours ago)
Valid From Jun-18 @ 12:00 UTC
(an hour ago)
Valid To Jun-19 @ 12:00 UTC
(in 23 hours)
Jun-18 @ 12:00 - Jun-19 @ 06:00
Wind Visibility
190° at 12 knots 10,000+ meters
Clouds
  • Broken at 1,700' AGL
Temporary Jun-18 @ 12:00 - Jun-18 @ 15:00
Wind
200° at 17 knots
 Gusting to 27 knots
Clouds
  • Broken at 1,200' AGL
Becoming Jun-19 @ 06:00 - Jun-19 @ 12:00
Wind Visibility
190° at 12 knots 7,001 meters
Clouds
  • Broken at 1,000' AGL
  • Scattered at 3,000' AGL
Conditions
  • Rain